sensor_id;sensor_type;location;lat;lon;timestamp;P1;durP1;ratioP1;P2;durP2;ratioP2
47844;SDS011;33605;48.822;8.796;2023-02-10T00:01:15;40.47;;;20.30;;
47844;SDS011;33605;48.822;8.796;2023-02-10T00:03:43;34.10;;;17.80;;
47844;SDS011;33605;48.822;8.796;2023-02-10T00:06:09;34.33;;;18.13;;
47844;SDS011;33605;48.822;8.796;2023-02-10T00:08:35;59.33;;;24.63;;
47844;SDS011;33605;48.822;8.796;2023-02-10T00:11:05;59.87;;;27.70;;
47844;SDS011;33605;48.822;8.796;2023-02-10T00:13:34;56.17;;;25.70;;
47844;SDS011;33605;48.822;8.796;2023-02-10T00:16:00;45.77;;;23.03;;
47844;SDS011;33605;48.822;8.796;2023-02-10T00:18:28;48.27;;;24.30;;
47844;SDS011;33605;48.822;8.796;2023-02-10T00:20:54;37.33;;;20.77;;
47844;SDS011;33605;48.822;8.796;2023-02-10T00:23:20;31.20;;;18.10;;
47844;SDS011;33605;48.822;8.796;2023-02-10T00:25:45;33.50;;;19.23;;
47844;SDS011;33605;48.822;8.796;2023-02-10T00:28:11;31.27;;;17.80;;
47844;SDS011;33605;48.822;8.796;2023-02-10T00:30:37;41.20;;;18.97;;
47844;SDS011;33605;48.822;8.796;2023-02-10T00:33:03;41.63;;;23.80;;
47844;SDS011;33605;48.822;8.796;2023-02-10T00:35:29;38.50;;;21.37;;
47844;SDS011;33605;48.822;8.796;2023-02-10T00:37:55;43.67;;;19.40;;
47844;SDS011;33605;48.822;8.796;2023-02-10T00:40:21;34.17;;;19.80;;
47844;SDS011;33605;48.822;8.796;2023-02-10T00:42:46;35.27;;;20.40;;
47844;SDS011;33605;48.822;8.796;2023-02-10T00:45:12;36.40;;;18.63;;
47844;SDS011;33605;48.822;8.796;2023-02-10T00:47:38;37.90;;;20.20;;
47844;SDS011;33605;48.822;8.796;2023-02-10T00:50:04;34.87;;;19.80;;
47844;SDS011;33605;48.822;8.796;2023-02-10T00:52:30;37.77;;;20.23;;
47844;SDS011;33605;48.822;8.796;2023-02-10T00:54:55;35.13;;;18.93;;
47844;SDS011;33605;48.822;8.796;2023-02-10T00:57:21;43.03;;;20.97;;
47844;SDS011;33605;48.822;8.796;2023-02-10T00:59:47;34.77;;;18.47;;
47844;SDS011;33605;48.822;8.796;2023-02-10T01:02:13;33.10;;;17.40;;
47844;SDS011;33605;48.822;8.796;2023-02-10T01:04:38;37.20;;;18.50;;
47844;SDS011;33605;48.822;8.796;2023-02-10T01:07:04;31.57;;;18.33;;
47844;SDS011;33605;48.822;8.796;2023-02-10T01:09:30;33.73;;;18.53;;
47844;SDS011;33605;48.822;8.796;2023-02-10T01:11:55;32.67;;;18.60;;
47844;SDS011;33605;48.822;8.796;2023-02-10T01:14:21;36.87;;;18.13;;
47844;SDS011;33605;48.822;8.796;2023-02-10T01:16:47;33.57;;;19.53;;
47844;SDS011;33605;48.822;8.796;2023-02-10T01:19:14;29.90;;;17.67;;
47844;SDS011;33605;48.822;8.796;2023-02-10T01:21:40;32.47;;;17.43;;
47844;SDS011;33605;48.822;8.796;2023-02-10T01:24:06;28.57;;;17.20;;
47844;SDS011;33605;48.822;8.796;2023-02-10T01:26:32;38.47;;;19.40;;
47844;SDS011;33605;48.822;8.796;2023-02-10T01:28:58;39.67;;;21.30;;
47844;SDS011;33605;48.822;8.796;2023-02-10T01:31:24;165.67;;;55.90;;
47844;SDS011;33605;48.822;8.796;2023-02-10T01:33:51;50.67;;;25.20;;
47844;SDS011;33605;48.822;8.796;2023-02-10T01:36:18;37.77;;;19.77;;
47844;SDS011;33605;48.822;8.796;2023-02-10T01:38:45;35.77;;;17.73;;
47844;SDS011;33605;48.822;8.796;2023-02-10T01:41:11;39.07;;;20.10;;
47844;SDS011;33605;48.822;8.796;2023-02-10T01:46:25;42.50;;;20.53;;
47844;SDS011;33605;48.822;8.796;2023-02-10T01:48:52;55.80;;;24.50;;
47844;SDS011;33605;48.822;8.796;2023-02-10T01:51:22;93.60;;;38.60;;
47844;SDS011;33605;48.822;8.796;2023-02-10T01:53:52;112.87;;;42.57;;
47844;SDS011;33605;48.822;8.796;2023-02-10T01:56:18;148.83;;;49.87;;
47844;SDS011;33605;48.822;8.796;2023-02-10T01:58:44;137.03;;;52.87;;
47844;SDS011;33605;48.822;8.796;2023-02-10T02:01:10;147.60;;;52.60;;
47844;SDS011;33605;48.822;8.796;2023-02-10T02:03:36;57.23;;;27.57;;
47844;SDS011;33605;48.822;8.796;2023-02-10T02:06:06;42.63;;;20.50;;
47844;SDS011;33605;48.822;8.796;2023-02-10T02:08:32;39.03;;;20.63;;
47844;SDS011;33605;48.822;8.796;2023-02-10T02:11:03;30.53;;;18.20;;
47844;SDS011;33605;48.822;8.796;2023-02-10T02:24:49;37.83;;;19.30;;
47844;SDS011;33605;48.822;8.796;2023-02-10T02:27:57;30.73;;;17.60;;
47844;SDS011;33605;48.822;8.796;2023-02-10T02:33:18;35.37;;;20.70;;
47844;SDS011;33605;48.822;8.796;2023-02-10T02:36:11;42.93;;;20.10;;
47844;SDS011;33605;48.822;8.796;2023-02-10T02:38:42;37.93;;;19.40;;
47844;SDS011;33605;48.822;8.796;2023-02-10T02:41:08;34.73;;;19.80;;
47844;SDS011;33605;48.822;8.796;2023-02-10T02:43:35;35.87;;;18.70;;
47844;SDS011;33605;48.822;8.796;2023-02-10T02:46:05;31.97;;;17.70;;
47844;SDS011;33605;48.822;8.796;2023-02-10T02:49:17;31.40;;;17.50;;
47844;SDS011;33605;48.822;8.796;2023-02-10T02:56:50;28.07;;;17.57;;
47844;SDS011;33605;48.822;8.796;2023-02-10T02:59:54;31.40;;;18.03;;
47844;SDS011;33605;48.822;8.796;2023-02-10T03:02:30;34.20;;;18.50;;
47844;SDS011;33605;48.822;8.796;2023-02-10T03:04:58;42.60;;;22.10;;
47844;SDS011;33605;48.822;8.796;2023-02-10T03:07:23;38.70;;;20.30;;
47844;SDS011;33605;48.822;8.796;2023-02-10T03:09:49;36.13;;;20.20;;
47844;SDS011;33605;48.822;8.796;2023-02-10T03:12:15;30.03;;;18.27;;
47844;SDS011;33605;48.822;8.796;2023-02-10T03:14:41;34.00;;;21.20;;
47844;SDS011;33605;48.822;8.796;2023-02-10T03:17:06;41.47;;;20.20;;
47844;SDS011;33605;48.822;8.796;2023-02-10T03:19:32;43.33;;;19.77;;
47844;SDS011;33605;48.822;8.796;2023-02-10T03:21:58;38.93;;;19.83;;
47844;SDS011;33605;48.822;8.796;2023-02-10T03:24:24;36.43;;;20.80;;
47844;SDS011;33605;48.822;8.796;2023-02-10T03:26:49;45.67;;;19.97;;
47844;SDS011;33605;48.822;8.796;2023-02-10T03:29:15;41.47;;;18.43;;
47844;SDS011;33605;48.822;8.796;2023-02-10T03:31:41;36.50;;;19.20;;
47844;SDS011;33605;48.822;8.796;2023-02-10T03:34:07;39.73;;;20.17;;
47844;SDS011;33605;48.822;8.796;2023-02-10T03:36:32;40.60;;;19.07;;
47844;SDS011;33605;48.822;8.796;2023-02-10T03:38:58;39.10;;;19.30;;
47844;SDS011;33605;48.822;8.796;2023-02-10T03:41:28;33.20;;;19.17;;
47844;SDS011;33605;48.822;8.796;2023-02-10T03:43:53;43.70;;;19.33;;
47844;SDS011;33605;48.822;8.796;2023-02-10T03:46:19;38.07;;;20.30;;
47844;SDS011;33605;48.822;8.796;2023-02-10T03:48:46;40.90;;;20.80;;
47844;SDS011;33605;48.822;8.796;2023-02-10T03:51:12;32.37;;;18.67;;
47844;SDS011;33605;48.822;8.796;2023-02-10T03:53:38;35.40;;;20.53;;
47844;SDS011;33605;48.822;8.796;2023-02-10T03:56:04;38.50;;;19.40;;
47844;SDS011;33605;48.822;8.796;2023-02-10T03:58:30;36.97;;;18.33;;
47844;SDS011;33605;48.822;8.796;2023-02-10T04:00:56;39.57;;;19.30;;
47844;SDS011;33605;48.822;8.796;2023-02-10T04:03:21;34.07;;;19.63;;
47844;SDS011;33605;48.822;8.796;2023-02-10T04:05:47;36.00;;;18.97;;
47844;SDS011;33605;48.822;8.796;2023-02-10T04:08:13;36.17;;;19.27;;
47844;SDS011;33605;48.822;8.796;2023-02-10T04:10:38;38.50;;;20.17;;
47844;SDS011;33605;48.822;8.796;2023-02-10T04:13:04;35.70;;;18.93;;
47844;SDS011;33605;48.822;8.796;2023-02-10T04:15:29;36.70;;;19.87;;
47844;SDS011;33605;48.822;8.796;2023-02-10T04:17:55;35.57;;;18.40;;
47844;SDS011;33605;48.822;8.796;2023-02-10T04:20:24;32.67;;;16.80;;
47844;SDS011;33605;48.822;8.796;2023-02-10T04:22:50;35.60;;;19.47;;
47844;SDS011;33605;48.822;8.796;2023-02-10T04:25:15;38.60;;;19.83;;
47844;SDS011;33605;48.822;8.796;2023-02-10T04:27:41;37.27;;;19.90;;
47844;SDS011;33605;48.822;8.796;2023-02-10T04:30:08;36.63;;;20.43;;
47844;SDS011;33605;48.822;8.796;2023-02-10T04:32:34;39.60;;;19.03;;
47844;SDS011;33605;48.822;8.796;2023-02-10T04:35:00;35.90;;;19.37;;
47844;SDS011;33605;48.822;8.796;2023-02-10T04:37:26;35.23;;;19.10;;
47844;SDS011;33605;48.822;8.796;2023-02-10T04:39:51;34.27;;;17.93;;
47844;SDS011;33605;48.822;8.796;2023-02-10T04:42:17;38.33;;;18.97;;
47844;SDS011;33605;48.822;8.796;2023-02-10T04:44:43;40.07;;;19.57;;
47844;SDS011;33605;48.822;8.796;2023-02-10T04:47:08;36.37;;;19.50;;
47844;SDS011;33605;48.822;8.796;2023-02-10T04:49:34;32.93;;;19.47;;
47844;SDS011;33605;48.822;8.796;2023-02-10T04:51:59;38.20;;;20.30;;
47844;SDS011;33605;48.822;8.796;2023-02-10T04:54:25;38.20;;;19.27;;
47844;SDS011;33605;48.822;8.796;2023-02-10T04:56:50;36.90;;;18.03;;
47844;SDS011;33605;48.822;8.796;2023-02-10T04:59:16;30.63;;;17.33;;
47844;SDS011;33605;48.822;8.796;2023-02-10T05:01:42;30.40;;;17.50;;
47844;SDS011;33605;48.822;8.796;2023-02-10T05:04:07;34.07;;;18.40;;
47844;SDS011;33605;48.822;8.796;2023-02-10T05:06:33;34.50;;;17.90;;
47844;SDS011;33605;48.822;8.796;2023-02-10T05:08:58;30.90;;;17.60;;
47844;SDS011;33605;48.822;8.796;2023-02-10T05:11:24;39.93;;;18.97;;
47844;SDS011;33605;48.822;8.796;2023-02-10T05:13:50;30.17;;;16.07;;
47844;SDS011;33605;48.822;8.796;2023-02-10T05:16:16;39.97;;;20.43;;
47844;SDS011;33605;48.822;8.796;2023-02-10T05:18:42;33.97;;;18.57;;
47844;SDS011;33605;48.822;8.796;2023-02-10T05:21:08;26.97;;;16.50;;
47844;SDS011;33605;48.822;8.796;2023-02-10T05:23:36;37.63;;;17.00;;
47844;SDS011;33605;48.822;8.796;2023-02-10T05:26:02;31.50;;;16.50;;
47844;SDS011;33605;48.822;8.796;2023-02-10T05:28:28;30.80;;;18.30;;
47844;SDS011;33605;48.822;8.796;2023-02-10T05:30:54;32.20;;;17.30;;
47844;SDS011;33605;48.822;8.796;2023-02-10T05:33:19;31.90;;;17.10;;
47844;SDS011;33605;48.822;8.796;2023-02-10T05:35:45;36.70;;;17.70;;
47844;SDS011;33605;48.822;8.796;2023-02-10T05:38:11;35.53;;;17.90;;
47844;SDS011;33605;48.822;8.796;2023-02-10T05:40:37;33.37;;;17.33;;
47844;SDS011;33605;48.822;8.796;2023-02-10T05:43:02;35.83;;;18.80;;
47844;SDS011;33605;48.822;8.796;2023-02-10T05:45:28;33.57;;;17.87;;
47844;SDS011;33605;48.822;8.796;2023-02-10T05:47:54;34.13;;;17.17;;
47844;SDS011;33605;48.822;8.796;2023-02-10T05:50:20;37.13;;;19.30;;
47844;SDS011;33605;48.822;8.796;2023-02-10T05:52:45;31.53;;;17.57;;
47844;SDS011;33605;48.822;8.796;2023-02-10T05:55:11;39.23;;;18.47;;
47844;SDS011;33605;48.822;8.796;2023-02-10T05:57:37;30.50;;;18.70;;
47844;SDS011;33605;48.822;8.796;2023-02-10T06:00:03;39.13;;;18.57;;
47844;SDS011;33605;48.822;8.796;2023-02-10T06:02:30;32.17;;;17.37;;
47844;SDS011;33605;48.822;8.796;2023-02-10T06:04:56;39.20;;;18.80;;
47844;SDS011;33605;48.822;8.796;2023-02-10T06:07:21;31.30;;;18.10;;
47844;SDS011;33605;48.822;8.796;2023-02-10T06:09:47;31.47;;;17.63;;
47844;SDS011;33605;48.822;8.796;2023-02-10T06:12:13;33.87;;;19.23;;
47844;SDS011;33605;48.822;8.796;2023-02-10T06:14:38;38.90;;;21.27;;
47844;SDS011;33605;48.822;8.796;2023-02-10T06:17:04;32.27;;;18.73;;
47844;SDS011;33605;48.822;8.796;2023-02-10T06:19:36;29.57;;;17.43;;
47844;SDS011;33605;48.822;8.796;2023-02-10T06:22:03;33.07;;;18.20;;
47844;SDS011;33605;48.822;8.796;2023-02-10T06:24:30;31.90;;;18.33;;
47844;SDS011;33605;48.822;8.796;2023-02-10T06:26:56;36.73;;;18.90;;
47844;SDS011;33605;48.822;8.796;2023-02-10T06:29:21;33.73;;;18.00;;
47844;SDS011;33605;48.822;8.796;2023-02-10T06:31:47;42.43;;;18.20;;
47844;SDS011;33605;48.822;8.796;2023-02-10T06:34:13;32.80;;;19.10;;
47844;SDS011;33605;48.822;8.796;2023-02-10T06:36:38;36.13;;;18.40;;
47844;SDS011;33605;48.822;8.796;2023-02-10T06:39:04;39.87;;;20.07;;
47844;SDS011;33605;48.822;8.796;2023-02-10T06:41:30;39.33;;;20.27;;
47844;SDS011;33605;48.822;8.796;2023-02-10T06:43:56;74.47;;;28.87;;
47844;SDS011;33605;48.822;8.796;2023-02-10T06:46:21;71.50;;;29.07;;
47844;SDS011;33605;48.822;8.796;2023-02-10T06:48:47;70.93;;;26.10;;
47844;SDS011;33605;48.822;8.796;2023-02-10T06:51:13;42.23;;;19.83;;
47844;SDS011;33605;48.822;8.796;2023-02-10T06:53:38;44.40;;;19.33;;
47844;SDS011;33605;48.822;8.796;2023-02-10T06:56:04;35.80;;;19.17;;
47844;SDS011;33605;48.822;8.796;2023-02-10T06:58:30;40.80;;;22.60;;
47844;SDS011;33605;48.822;8.796;2023-02-10T07:00:56;35.63;;;18.97;;
47844;SDS011;33605;48.822;8.796;2023-02-10T07:03:23;37.50;;;21.80;;
47844;SDS011;33605;48.822;8.796;2023-02-10T07:05:49;40.73;;;26.73;;
47844;SDS011;33605;48.822;8.796;2023-02-10T07:08:15;43.23;;;24.67;;
47844;SDS011;33605;48.822;8.796;2023-02-10T07:10:41;35.50;;;20.63;;
47844;SDS011;33605;48.822;8.796;2023-02-10T07:13:06;40.80;;;23.73;;
47844;SDS011;33605;48.822;8.796;2023-02-10T07:15:32;38.30;;;21.50;;
47844;SDS011;33605;48.822;8.796;2023-02-10T07:17:57;41.80;;;21.70;;
47844;SDS011;33605;48.822;8.796;2023-02-10T07:20:23;35.63;;;18.80;;
47844;SDS011;33605;48.822;8.796;2023-02-10T07:22:49;37.03;;;19.33;;
47844;SDS011;33605;48.822;8.796;2023-02-10T07:25:16;34.53;;;18.67;;
47844;SDS011;33605;48.822;8.796;2023-02-10T07:27:42;39.40;;;20.30;;
47844;SDS011;33605;48.822;8.796;2023-02-10T07:30:08;31.50;;;18.73;;
47844;SDS011;33605;48.822;8.796;2023-02-10T07:32:35;33.63;;;17.60;;
47844;SDS011;33605;48.822;8.796;2023-02-10T07:35:00;33.63;;;18.77;;
47844;SDS011;33605;48.822;8.796;2023-02-10T07:37:26;30.20;;;18.70;;
47844;SDS011;33605;48.822;8.796;2023-02-10T07:39:52;36.00;;;18.43;;
47844;SDS011;33605;48.822;8.796;2023-02-10T07:42:17;31.03;;;18.53;;
47844;SDS011;33605;48.822;8.796;2023-02-10T07:44:43;34.13;;;18.77;;
47844;SDS011;33605;48.822;8.796;2023-02-10T07:47:09;32.23;;;17.20;;
47844;SDS011;33605;48.822;8.796;2023-02-10T07:49:36;30.87;;;16.60;;
47844;SDS011;33605;48.822;8.796;2023-02-10T07:52:01;33.97;;;15.50;;
47844;SDS011;33605;48.822;8.796;2023-02-10T07:54:27;26.87;;;17.10;;
47844;SDS011;33605;48.822;8.796;2023-02-10T07:56:53;36.63;;;16.30;;
47844;SDS011;33605;48.822;8.796;2023-02-10T07:59:18;31.27;;;16.97;;
47844;SDS011;33605;48.822;8.796;2023-02-10T08:01:44;33.50;;;18.37;;
47844;SDS011;33605;48.822;8.796;2023-02-10T08:04:10;35.13;;;18.67;;
47844;SDS011;33605;48.822;8.796;2023-02-10T08:06:36;35.53;;;19.33;;
47844;SDS011;33605;48.822;8.796;2023-02-10T08:09:02;35.93;;;19.50;;
47844;SDS011;33605;48.822;8.796;2023-02-10T08:11:28;38.53;;;21.90;;
47844;SDS011;33605;48.822;8.796;2023-02-10T08:13:53;37.97;;;20.87;;
47844;SDS011;33605;48.822;8.796;2023-02-10T08:16:19;34.90;;;18.33;;
47844;SDS011;33605;48.822;8.796;2023-02-10T08:18:44;36.10;;;19.90;;
47844;SDS011;33605;48.822;8.796;2023-02-10T08:21:10;36.83;;;20.63;;
47844;SDS011;33605;48.822;8.796;2023-02-10T08:23:36;32.20;;;19.23;;
47844;SDS011;33605;48.822;8.796;2023-02-10T08:26:02;36.60;;;19.53;;
47844;SDS011;33605;48.822;8.796;2023-02-10T08:28:29;40.57;;;18.80;;
47844;SDS011;33605;48.822;8.796;2023-02-10T08:30:58;32.87;;;19.20;;
47844;SDS011;33605;48.822;8.796;2023-02-10T08:33:24;36.50;;;20.40;;
47844;SDS011;33605;48.822;8.796;2023-02-10T08:35:50;35.80;;;19.83;;
47844;SDS011;33605;48.822;8.796;2023-02-10T08:38:15;34.43;;;19.00;;
47844;SDS011;33605;48.822;8.796;2023-02-10T08:40:41;33.00;;;20.20;;
47844;SDS011;33605;48.822;8.796;2023-02-10T08:43:06;41.47;;;20.30;;
47844;SDS011;33605;48.822;8.796;2023-02-10T08:45:32;35.43;;;20.80;;
47844;SDS011;33605;48.822;8.796;2023-02-10T08:47:58;39.13;;;19.53;;
47844;SDS011;33605;48.822;8.796;2023-02-10T08:50:26;42.53;;;21.27;;
47844;SDS011;33605;48.822;8.796;2023-02-10T08:52:52;37.37;;;20.77;;
47844;SDS011;33605;48.822;8.796;2023-02-10T08:55:17;31.10;;;19.60;;
47844;SDS011;33605;48.822;8.796;2023-02-10T08:57:43;33.77;;;18.50;;
47844;SDS011;33605;48.822;8.796;2023-02-10T09:00:09;38.63;;;21.40;;
47844;SDS011;33605;48.822;8.796;2023-02-10T09:02:35;37.07;;;19.50;;
47844;SDS011;33605;48.822;8.796;2023-02-10T09:05:01;38.27;;;20.40;;
47844;SDS011;33605;48.822;8.796;2023-02-10T09:07:26;35.90;;;20.40;;
47844;SDS011;33605;48.822;8.796;2023-02-10T09:09:52;35.23;;;22.30;;
47844;SDS011;33605;48.822;8.796;2023-02-10T09:12:18;32.60;;;20.80;;
47844;SDS011;33605;48.822;8.796;2023-02-10T09:14:43;35.40;;;21.03;;
47844;SDS011;33605;48.822;8.796;2023-02-10T09:17:09;35.37;;;20.47;;
47844;SDS011;33605;48.822;8.796;2023-02-10T09:19:36;36.90;;;20.50;;
47844;SDS011;33605;48.822;8.796;2023-02-10T09:22:05;44.60;;;22.13;;
47844;SDS011;33605;48.822;8.796;2023-02-10T09:24:31;36.53;;;20.93;;
47844;SDS011;33605;48.822;8.796;2023-02-10T09:26:57;33.90;;;20.47;;
47844;SDS011;33605;48.822;8.796;2023-02-10T09:29:24;29.67;;;19.13;;
47844;SDS011;33605;48.822;8.796;2023-02-10T09:31:49;34.17;;;21.47;;
47844;SDS011;33605;48.822;8.796;2023-02-10T09:34:15;36.33;;;20.27;;
47844;SDS011;33605;48.822;8.796;2023-02-10T09:36:41;28.27;;;18.00;;
47844;SDS011;33605;48.822;8.796;2023-02-10T09:39:07;33.77;;;20.80;;
47844;SDS011;33605;48.822;8.796;2023-02-10T09:44:11;34.20;;;20.00;;
47844;SDS011;33605;48.822;8.796;2023-02-10T09:54:49;31.07;;;19.00;;
47844;SDS011;33605;48.822;8.796;2023-02-10T09:57:19;30.67;;;19.63;;
47844;SDS011;33605;48.822;8.796;2023-02-10T09:59:47;34.47;;;19.40;;
47844;SDS011;33605;48.822;8.796;2023-02-10T10:02:15;35.10;;;19.40;;
47844;SDS011;33605;48.822;8.796;2023-02-10T10:04:42;31.80;;;19.43;;
47844;SDS011;33605;48.822;8.796;2023-02-10T10:07:23;28.17;;;17.33;;
47844;SDS011;33605;48.822;8.796;2023-02-10T10:09:56;30.50;;;18.10;;
47844;SDS011;33605;48.822;8.796;2023-02-10T10:12:24;25.07;;;16.70;;
47844;SDS011;33605;48.822;8.796;2023-02-10T10:14:50;29.20;;;19.07;;
47844;SDS011;33605;48.822;8.796;2023-02-10T10:20:01;24.40;;;16.37;;
47844;SDS011;33605;48.822;8.796;2023-02-10T10:22:51;28.97;;;18.20;;
47844;SDS011;33605;48.822;8.796;2023-02-10T10:28:12;27.17;;;17.30;;
47844;SDS011;33605;48.822;8.796;2023-02-10T10:33:20;27.83;;;18.67;;
47844;SDS011;33605;48.822;8.796;2023-02-10T10:35:49;24.37;;;16.33;;
47844;SDS011;33605;48.822;8.796;2023-02-10T10:38:27;25.27;;;16.27;;
47844;SDS011;33605;48.822;8.796;2023-02-10T10:40:55;29.13;;;18.60;;
47844;SDS011;33605;48.822;8.796;2023-02-10T10:43:24;26.50;;;17.13;;
47844;SDS011;33605;48.822;8.796;2023-02-10T10:45:56;26.07;;;17.77;;
47844;SDS011;33605;48.822;8.796;2023-02-10T10:48:24;26.50;;;16.87;;
47844;SDS011;33605;48.822;8.796;2023-02-10T10:50:55;23.90;;;16.40;;
47844;SDS011;33605;48.822;8.796;2023-02-10T10:53:32;25.43;;;17.07;;
47844;SDS011;33605;48.822;8.796;2023-02-10T10:56:01;25.33;;;16.63;;
47844;SDS011;33605;48.822;8.796;2023-02-10T10:58:31;23.27;;;15.57;;
47844;SDS011;33605;48.822;8.796;2023-02-10T11:00:58;23.30;;;15.50;;
47844;SDS011;33605;48.822;8.796;2023-02-10T11:03:26;20.30;;;14.77;;
47844;SDS011;33605;48.822;8.796;2023-02-10T11:06:00;20.70;;;15.83;;
47844;SDS011;33605;48.822;8.796;2023-02-10T11:08:29;19.10;;;15.80;;
47844;SDS011;33605;48.822;8.796;2023-02-10T11:10:56;22.23;;;16.27;;
47844;SDS011;33605;48.822;8.796;2023-02-10T11:13:24;18.40;;;15.10;;
47844;SDS011;33605;48.822;8.796;2023-02-10T11:15:58;18.43;;;15.37;;
47844;SDS011;33605;48.822;8.796;2023-02-10T11:18:25;21.00;;;16.00;;
47844;SDS011;33605;48.822;8.796;2023-02-10T11:20:52;21.50;;;16.43;;
47844;SDS011;33605;48.822;8.796;2023-02-10T11:23:19;21.50;;;16.10;;
47844;SDS011;33605;48.822;8.796;2023-02-10T11:25:46;22.00;;;17.03;;
47844;SDS011;33605;48.822;8.796;2023-02-10T11:28:19;20.33;;;16.00;;
47844;SDS011;33605;48.822;8.796;2023-02-10T11:30:47;18.27;;;14.70;;
47844;SDS011;33605;48.822;8.796;2023-02-10T11:33:20;20.93;;;15.73;;
47844;SDS011;33605;48.822;8.796;2023-02-10T11:35:51;19.80;;;16.10;;
47844;SDS011;33605;48.822;8.796;2023-02-10T11:38:21;21.37;;;17.60;;
47844;SDS011;33605;48.822;8.796;2023-02-10T11:40:59;21.47;;;17.30;;
47844;SDS011;33605;48.822;8.796;2023-02-10T11:43:34;20.47;;;18.27;;
47844;SDS011;33605;48.822;8.796;2023-02-10T11:46:02;21.97;;;18.57;;
47844;SDS011;33605;48.822;8.796;2023-02-10T11:48:29;23.03;;;18.40;;
47844;SDS011;33605;48.822;8.796;2023-02-10T11:53:31;22.07;;;17.47;;
47844;SDS011;33605;48.822;8.796;2023-02-10T11:56:00;18.37;;;15.53;;
47844;SDS011;33605;48.822;8.796;2023-02-10T12:01:17;20.03;;;16.73;;
47844;SDS011;33605;48.822;8.796;2023-02-10T12:06:15;19.10;;;17.10;;
47844;SDS011;33605;48.822;8.796;2023-02-10T12:08:56;25.60;;;18.13;;
47844;SDS011;33605;48.822;8.796;2023-02-10T12:11:46;17.93;;;15.50;;
47844;SDS011;33605;48.822;8.796;2023-02-10T12:22:15;18.30;;;16.40;;
47844;SDS011;33605;48.822;8.796;2023-02-10T12:32:45;18.27;;;16.40;;
47844;SDS011;33605;48.822;8.796;2023-02-10T12:35:19;20.17;;;17.50;;
47844;SDS011;33605;48.822;8.796;2023-02-10T12:37:55;22.00;;;19.60;;
47844;SDS011;33605;48.822;8.796;2023-02-10T12:43:26;20.90;;;17.33;;
47844;SDS011;33605;48.822;8.796;2023-02-10T12:48:49;19.40;;;17.40;;
47844;SDS011;33605;48.822;8.796;2023-02-10T12:53:47;18.10;;;16.20;;
47844;SDS011;33605;48.822;8.796;2023-02-10T12:56:15;19.70;;;16.80;;
47844;SDS011;33605;48.822;8.796;2023-02-10T12:58:45;21.27;;;17.93;;
47844;SDS011;33605;48.822;8.796;2023-02-10T13:01:13;18.77;;;16.77;;
47844;SDS011;33605;48.822;8.796;2023-02-10T13:03:43;24.17;;;18.30;;
47844;SDS011;33605;48.822;8.796;2023-02-10T13:09:03;20.40;;;17.27;;
47844;SDS011;33605;48.822;8.796;2023-02-10T13:11:36;17.50;;;15.50;;
47844;SDS011;33605;48.822;8.796;2023-02-10T13:14:08;17.20;;;14.70;;
47844;SDS011;33605;48.822;8.796;2023-02-10T13:16:36;19.13;;;15.50;;
47844;SDS011;33605;48.822;8.796;2023-02-10T13:19:05;17.60;;;14.57;;
47844;SDS011;33605;48.822;8.796;2023-02-10T13:24:11;22.23;;;17.00;;
47844;SDS011;33605;48.822;8.796;2023-02-10T13:26:57;16.87;;;15.07;;
47844;SDS011;33605;48.822;8.796;2023-02-10T13:29:34;30.57;;;23.80;;
47844;SDS011;33605;48.822;8.796;2023-02-10T13:32:09;27.20;;;22.47;;
47844;SDS011;33605;48.822;8.796;2023-02-10T13:34:50;27.47;;;21.90;;
47844;SDS011;33605;48.822;8.796;2023-02-10T13:39:51;19.23;;;17.07;;
47844;SDS011;33605;48.822;8.796;2023-02-10T13:42:20;26.33;;;19.40;;
47844;SDS011;33605;48.822;8.796;2023-02-10T13:44:56;22.70;;;20.07;;
47844;SDS011;33605;48.822;8.796;2023-02-10T13:50:02;18.37;;;15.97;;
47844;SDS011;33605;48.822;8.796;2023-02-10T13:52:30;17.10;;;14.67;;
47844;SDS011;33605;48.822;8.796;2023-02-10T13:55:42;20.17;;;16.93;;
47844;SDS011;33605;48.822;8.796;2023-02-10T13:58:24;16.80;;;15.17;;
47844;SDS011;33605;48.822;8.796;2023-02-10T14:05:37;15.40;;;13.80;;
47844;SDS011;33605;48.822;8.796;2023-02-10T14:08:25;15.73;;;14.13;;
47844;SDS011;33605;48.822;8.796;2023-02-10T14:10:56;15.23;;;13.73;;
47844;SDS011;33605;48.822;8.796;2023-02-10T14:13:23;15.70;;;14.07;;
47844;SDS011;33605;48.822;8.796;2023-02-10T14:15:58;17.07;;;14.77;;
47844;SDS011;33605;48.822;8.796;2023-02-10T14:18:25;17.43;;;15.23;;
47844;SDS011;33605;48.822;8.796;2023-02-10T14:20:59;16.60;;;14.90;;
47844;SDS011;33605;48.822;8.796;2023-02-10T14:23:26;18.50;;;14.90;;
47844;SDS011;33605;48.822;8.796;2023-02-10T14:25:57;15.70;;;14.10;;
47844;SDS011;33605;48.822;8.796;2023-02-10T14:28:25;16.07;;;14.40;;
47844;SDS011;33605;48.822;8.796;2023-02-10T14:31:03;17.70;;;14.73;;
47844;SDS011;33605;48.822;8.796;2023-02-10T14:33:31;17.13;;;14.60;;
47844;SDS011;33605;48.822;8.796;2023-02-10T14:35:59;16.80;;;15.10;;
47844;SDS011;33605;48.822;8.796;2023-02-10T14:38:27;17.93;;;16.03;;
47844;SDS011;33605;48.822;8.796;2023-02-10T14:40:53;18.00;;;14.50;;
47844;SDS011;33605;48.822;8.796;2023-02-10T14:43:21;17.90;;;15.73;;
47844;SDS011;33605;48.822;8.796;2023-02-10T14:45:48;16.37;;;14.27;;
47844;SDS011;33605;48.822;8.796;2023-02-10T14:48:14;22.00;;;18.53;;
47844;SDS011;33605;48.822;8.796;2023-02-10T14:50:46;24.93;;;19.23;;
47844;SDS011;33605;48.822;8.796;2023-02-10T14:53:21;18.60;;;16.40;;
47844;SDS011;33605;48.822;8.796;2023-02-10T14:55:52;21.70;;;17.10;;
47844;SDS011;33605;48.822;8.796;2023-02-10T14:58:18;18.20;;;14.90;;
47844;SDS011;33605;48.822;8.796;2023-02-10T15:00:53;23.03;;;18.00;;
47844;SDS011;33605;48.822;8.796;2023-02-10T15:03:19;28.77;;;20.33;;
47844;SDS011;33605;48.822;8.796;2023-02-10T15:05:47;20.03;;;16.77;;
47844;SDS011;33605;48.822;8.796;2023-02-10T15:08:16;23.33;;;19.87;;
47844;SDS011;33605;48.822;8.796;2023-02-10T15:10:44;21.13;;;17.60;;
47844;SDS011;33605;48.822;8.796;2023-02-10T15:13:12;19.50;;;17.00;;
47844;SDS011;33605;48.822;8.796;2023-02-10T15:15:39;18.33;;;15.47;;
47844;SDS011;33605;48.822;8.796;2023-02-10T15:18:15;20.00;;;16.73;;
47844;SDS011;33605;48.822;8.796;2023-02-10T15:20:50;20.70;;;17.77;;
47844;SDS011;33605;48.822;8.796;2023-02-10T15:23:18;19.03;;;15.80;;
47844;SDS011;33605;48.822;8.796;2023-02-10T15:25:44;20.87;;;16.83;;
47844;SDS011;33605;48.822;8.796;2023-02-10T15:36:12;25.60;;;16.10;;
47844;SDS011;33605;48.822;8.796;2023-02-10T15:38:49;20.13;;;15.33;;
47844;SDS011;33605;48.822;8.796;2023-02-10T15:41:26;18.47;;;14.90;;
47844;SDS011;33605;48.822;8.796;2023-02-10T15:43:52;25.23;;;17.03;;
47844;SDS011;33605;48.822;8.796;2023-02-10T15:46:18;22.10;;;16.43;;
47844;SDS011;33605;48.822;8.796;2023-02-10T15:48:46;23.43;;;16.07;;
47844;SDS011;33605;48.822;8.796;2023-02-10T15:51:19;22.30;;;16.90;;
47844;SDS011;33605;48.822;8.796;2023-02-10T15:53:48;21.53;;;15.53;;
47844;SDS011;33605;48.822;8.796;2023-02-10T15:56:15;20.00;;;16.03;;
47844;SDS011;33605;48.822;8.796;2023-02-10T15:58:40;21.00;;;16.03;;
47844;SDS011;33605;48.822;8.796;2023-02-10T16:01:06;20.90;;;14.20;;
47844;SDS011;33605;48.822;8.796;2023-02-10T16:03:31;19.90;;;15.60;;